Time;durP1;ratioP1;P1;durP2;ratioP2;P2;SDS_P1;SDS_P2;PMS_P1;PMS_P2;Temp;Humidity;BMP_temperature;BMP_pressure;BME280_temperature;BME280_humidity;BME280_pressure;Samples;Min_cycle;Max_cycle;Signal;HPM_P1;HPM_P2
2022/09/29 00:00:44;;;;;;;0.40;0.33;;;8.30;99.90;;;;;;5073644;28;20445;-78
2022/09/29 00:03:11;;;;;;;1.80;0.70;;;8.30;99.90;;;;;;5073148;28;21003;-79
2022/09/29 00:05:37;;;;;;;0.30;0.30;;;8.30;99.90;;;;;;5073592;28;20536;-79
2022/09/29 00:08:05;;;;;;;0.53;0.50;;;8.30;99.90;;;;;;5073538;28;20446;-79
2022/09/29 00:10:32;;;;;;;0.40;0.40;;;8.40;99.90;;;;;;5073206;28;20811;-79
2022/09/29 00:12:59;;;;;;;0.40;0.40;;;8.40;99.90;;;;;;5073113;28;20945;-79
2022/09/29 00:15:26;;;;;;;1.23;0.67;;;8.40;99.90;;;;;;5073171;28;20949;-79
2022/09/29 00:17:52;;;;;;;1.80;0.53;;;8.40;99.90;;;;;;5073455;28;20449;-79
2022/09/29 00:20:19;;;;;;;0.60;0.40;;;8.40;99.90;;;;;;5073411;28;20806;-79
2022/09/29 00:22:50;;;;;;;0.50;0.40;;;8.40;99.90;;;;;;5073048;28;20485;-79
2022/09/29 00:25:18;;;;;;;0.40;0.33;;;8.40;99.90;;;;;;5073189;28;20473;-79
2022/09/29 00:27:45;;;;;;;0.50;0.50;;;8.40;99.90;;;;;;5072786;28;20492;-79
2022/09/29 00:30:12;;;;;;;0.53;0.50;;;8.40;99.90;;;;;;5073382;28;20438;-79
2022/09/29 00:32:39;;;;;;;0.40;0.40;;;8.40;99.90;;;;;;5073004;28;20534;-79
2022/09/29 00:35:08;;;;;;;0.50;0.50;;;8.40;99.90;;;;;;5072911;28;20472;-79
2022/09/29 00:37:34;;;;;;;0.80;0.40;;;8.50;99.90;;;;;;5072906;28;20869;-79
2022/09/29 00:40:02;;;;;;;0.40;0.37;;;8.40;99.90;;;;;;5072905;28;20820;-79
2022/09/29 00:42:31;;;;;;;0.50;0.50;;;8.50;99.90;;;;;;5072814;28;21081;-79
2022/09/29 00:45:06;;;;;;;0.70;0.70;;;8.40;99.90;;;;;;5073080;28;20536;-79
2022/09/29 00:47:36;;;;;;;0.50;0.50;;;8.50;99.90;;;;;;5073226;28;20441;-79
2022/09/29 00:50:07;;;;;;;0.30;0.30;;;8.50;99.90;;;;;;5073201;28;20438;-79
2022/09/29 00:52:37;;;;;;;0.93;0.93;;;8.40;99.90;;;;;;5073172;28;20433;-79
2022/09/29 00:55:08;;;;;;;0.60;0.40;;;8.50;99.90;;;;;;5073317;28;20465;-79
2022/09/29 00:57:40;;;;;;;0.60;0.60;;;8.50;99.90;;;;;;5073135;28;20437;-79
2022/09/29 01:00:10;;;;;;;0.80;0.40;;;8.50;99.90;;;;;;5072800;28;20920;-79
2022/09/29 01:02:42;;;;;;;0.73;0.50;;;8.50;99.90;;;;;;5073667;28;20500;-79
2022/09/29 01:05:15;;;;;;;0.50;0.50;;;8.50;99.90;;;;;;5072953;28;20476;-79
2022/09/29 01:07:45;;;;;;;0.40;0.30;;;8.50;99.90;;;;;;5072694;28;20923;-79
2022/09/29 01:10:13;;;;;;;0.50;0.50;;;8.50;99.90;;;;;;5072685;28;20956;-79
2022/09/29 01:12:43;;;;;;;0.50;0.50;;;8.50;99.90;;;;;;5072641;28;20449;-79
2022/09/29 01:15:11;;;;;;;0.40;0.40;;;8.50;99.90;;;;;;5072842;28;20457;-79
2022/09/29 01:17:37;;;;;;;0.40;0.30;;;8.50;99.90;;;;;;5072890;28;20450;-79
2022/09/29 01:20:11;;;;;;;0.40;0.30;;;8.60;99.90;;;;;;5072900;28;20796;-79
2022/09/29 01:23:15;;;;;;;0.50;0.40;;;8.60;99.90;;;;;;5072472;28;20468;-79
2022/09/29 01:26:08;;;;;;;0.50;0.50;;;8.60;99.90;;;;;;5067462;28;20465;-79
2022/09/29 01:29:07;;;;;;;0.40;0.40;;;8.60;99.90;;;;;;5072472;28;20480;-79
2022/09/29 01:31:43;;;;;;;1.13;0.87;;;8.60;99.90;;;;;;5072764;28;20442;-79
2022/09/29 01:34:19;;;;;;;2.93;0.50;;;8.60;99.90;;;;;;5072717;28;20471;-79
2022/09/29 01:36:57;;;;;;;0.80;0.80;;;8.70;99.90;;;;;;5074987;28;20437;-79
2022/09/29 01:39:33;;;;;;;0.40;0.40;;;8.70;99.90;;;;;;5076315;28;20437;-79
2022/09/29 01:42:05;;;;;;;0.40;0.30;;;8.70;99.90;;;;;;5076179;28;20476;-79
2022/09/29 01:44:37;;;;;;;0.50;0.30;;;8.70;99.90;;;;;;5075870;28;20992;-79
2022/09/29 01:47:09;;;;;;;0.50;0.50;;;8.70;99.90;;;;;;5076205;28;20429;-79
2022/09/29 01:49:40;;;;;;;0.50;0.50;;;8.70;99.90;;;;;;5075888;28;20758;-79
2022/09/29 01:52:10;;;;;;;0.63;0.40;;;8.70;99.90;;;;;;5076111;28;20436;-79
2022/09/29 01:54:43;;;;;;;0.40;0.40;;;8.70;99.90;;;;;;5075937;28;20461;-79
2022/09/29 01:57:15;;;;;;;0.30;0.30;;;8.70;99.90;;;;;;5076015;28;20487;-79
2022/09/29 01:59:47;;;;;;;0.40;0.30;;;8.70;99.90;;;;;;5075979;28;20426;-79
2022/09/29 02:02:20;;;;;;;1.40;0.60;;;8.70;99.90;;;;;;5075865;28;20477;-79
2022/09/29 02:04:52;;;;;;;0.40;0.30;;;8.70;99.90;;;;;;5075834;28;20567;-79
2022/09/29 02:07:24;;;;;;;0.40;0.40;;;8.70;99.90;;;;;;5075860;28;20433;-79
2022/09/29 02:09:58;;;;;;;0.63;0.63;;;8.70;99.90;;;;;;5075858;28;20433;-79
2022/09/29 02:12:28;;;;;;;0.80;0.80;;;8.70;99.90;;;;;;5075747;28;20430;-79
2022/09/29 02:14:56;;;;;;;0.63;0.63;;;8.80;99.90;;;;;;5075590;28;20472;-79
2022/09/29 02:17:29;;;;;;;0.40;0.33;;;8.80;99.90;;;;;;5075271;28;20953;-79
2022/09/29 02:19:56;;;;;;;0.60;0.60;;;8.80;99.90;;;;;;5075293;28;20913;-79
2022/09/29 02:22:23;;;;;;;1.23;0.50;;;8.80;99.90;;;;;;5075445;28;20484;-79
2022/09/29 02:24:52;;;;;;;0.40;0.40;;;8.80;99.90;;;;;;5075402;28;20552;-79
2022/09/29 02:27:20;;;;;;;0.40;0.30;;;8.80;99.90;;;;;;5075387;28;20446;-79
2022/09/29 02:29:47;;;;;;;0.40;0.40;;;8.80;99.90;;;;;;5075367;28;20445;-79
2022/09/29 02:32:14;;;;;;;1.33;0.50;;;8.80;99.90;;;;;;5075302;28;20445;-79
2022/09/29 02:34:46;;;;;;;0.47;0.40;;;8.80;99.90;;;;;;5075217;28;20530;-79
2022/09/29 02:37:35;;;;;;;0.50;0.40;;;8.80;99.90;;;;;;5075282;28;20425;-79
2022/09/29 02:40:16;;;;;;;0.80;0.40;;;8.80;99.90;;;;;;5075261;28;20430;-79
2022/09/29 02:42:55;;;;;;;0.50;0.30;;;8.90;99.90;;;;;;5075127;28;20557;-79
2022/09/29 02:45:33;;;;;;;0.30;0.30;;;8.90;99.90;;;;;;5074797;28;20931;-79
2022/09/29 02:48:12;;;;;;;0.53;0.40;;;8.90;99.90;;;;;;5075008;28;20429;-79
2022/09/29 02:50:52;;;;;;;0.70;0.50;;;8.80;99.90;;;;;;5074998;28;20438;-79
2022/09/29 02:53:31;;;;;;;0.40;0.40;;;8.80;99.90;;;;;;5074915;28;20461;-79
2022/09/29 02:56:07;;;;;;;0.40;0.30;;;8.80;99.90;;;;;;5074896;28;20437;-79
2022/09/29 02:58:39;;;;;;;0.43;0.40;;;8.90;99.90;;;;;;5074839;28;20436;-79
2022/09/29 03:01:07;;;;;;;0.50;0.40;;;8.90;99.90;;;;;;5074805;28;20522;-79
2022/09/29 03:03:34;;;;;;;0.30;0.30;;;8.90;99.90;;;;;;5074563;28;20485;-79
2022/09/29 03:06:02;;;;;;;0.30;0.30;;;8.90;99.90;;;;;;5074678;28;20458;-79
2022/09/29 03:08:29;;;;;;;0.53;0.53;;;8.80;99.90;;;;;;5074281;28;20936;-79
2022/09/29 03:10:55;;;;;;;0.40;0.30;;;8.80;99.90;;;;;;5074234;28;20452;-79
2022/09/29 03:13:22;;;;;;;0.40;0.30;;;8.80;99.90;;;;;;5074105;28;20473;-79
2022/09/29 03:15:49;;;;;;;0.80;0.77;;;8.90;99.90;;;;;;5074451;28;20437;-79
2022/09/29 03:18:16;;;;;;;0.40;0.33;;;8.80;99.90;;;;;;5074411;28;20452;-79
2022/09/29 03:20:42;;;;;;;0.40;0.40;;;8.80;99.90;;;;;;5074346;28;20476;-79
2022/09/29 03:23:10;;;;;;;0.40;0.40;;;8.80;99.90;;;;;;5073876;28;21022;-79
2022/09/29 03:25:37;;;;;;;16.17;0.70;;;8.80;99.90;;;;;;5074237;28;20445;-79
2022/09/29 03:28:04;;;;;;;0.47;0.47;;;8.80;99.90;;;;;;5073714;28;20564;-79
2022/09/29 03:30:31;;;;;;;0.40;0.33;;;8.80;99.90;;;;;;5073858;28;20945;-79
2022/09/29 03:32:57;;;;;;;0.50;0.30;;;8.80;99.90;;;;;;5074022;28;20469;-79
2022/09/29 03:35:24;;;;;;;1.43;0.70;;;8.80;99.90;;;;;;5074089;28;20473;-79
2022/09/29 03:37:52;;;;;;;0.40;0.33;;;8.80;99.90;;;;;;5074054;28;20448;-79
2022/09/29 03:40:20;;;;;;;0.97;0.57;;;8.80;99.90;;;;;;5074619;28;20458;-79
2022/09/29 03:42:47;;;;;;;1.13;0.40;;;8.80;99.90;;;;;;5073891;28;20503;-79
2022/09/29 03:45:13;;;;;;;0.60;0.60;;;8.70;99.90;;;;;;5073508;28;20527;-79
2022/09/29 03:47:40;;;;;;;0.80;0.70;;;8.70;99.90;;;;;;5073815;28;20445;-79
2022/09/29 03:50:08;;;;;;;0.40;0.30;;;8.70;99.90;;;;;;5073810;28;20454;-79
2022/09/29 03:52:34;;;;;;;1.03;0.70;;;8.70;99.90;;;;;;5073790;28;20449;-79
2022/09/29 03:55:01;;;;;;;0.90;0.40;;;8.60;99.90;;;;;;5073639;28;20465;-79
2022/09/29 03:57:29;;;;;;;0.50;0.30;;;8.60;99.90;;;;;;5073743;28;20453;-79
2022/09/29 03:59:56;;;;;;;0.50;0.40;;;8.50;99.90;;;;;;5072862;28;20457;-79
2022/09/29 04:02:23;;;;;;;0.70;0.40;;;8.50;99.90;;;;;;5073238;28;20837;-78
2022/09/29 04:04:50;;;;;;;0.60;0.60;;;8.40;99.90;;;;;;5073578;28;20473;-79
2022/09/29 04:07:17;;;;;;;0.40;0.30;;;8.40;99.90;;;;;;5073565;28;20446;-79
2022/09/29 04:09:44;;;;;;;0.50;0.50;;;8.30;99.90;;;;;;5073301;28;20948;-79
2022/09/29 04:12:11;;;;;;;0.40;0.40;;;8.20;99.90;;;;;;5073210;28;20445;-79
2022/09/29 04:14:39;;;;;;;0.60;0.40;;;8.20;99.90;;;;;;5073099;28;21007;-79
2022/09/29 04:17:05;;;;;;;0.40;0.40;;;8.20;99.90;;;;;;5073202;28;20441;-79
2022/09/29 04:19:32;;;;;;;0.60;0.60;;;8.10;99.90;;;;;;5073137;28;20955;-79
2022/09/29 04:21:59;;;;;;;0.40;0.40;;;8.10;99.90;;;;;;5073116;28;20945;-79
2022/09/29 04:24:26;;;;;;;0.40;0.40;;;8.10;99.90;;;;;;5073260;28;20481;-79
2022/09/29 04:26:52;;;;;;;0.33;0.33;;;8.00;99.90;;;;;;5073064;28;20804;-79
2022/09/29 04:29:19;;;;;;;0.90;0.70;;;8.00;99.90;;;;;;5072894;28;20485;-79
2022/09/29 04:31:47;;;;;;;1.00;0.30;;;7.90;99.90;;;;;;5073371;28;20452;-78
2022/09/29 04:34:14;;;;;;;1.37;0.63;;;7.90;99.90;;;;;;5073251;28;20468;-78
2022/09/29 04:36:41;;;;;;;0.70;0.50;;;7.90;99.90;;;;;;5073342;28;20449;-78
2022/09/29 04:39:08;;;;;;;0.40;0.40;;;7.90;99.90;;;;;;5073274;28;20441;-78
2022/09/29 04:41:38;;;;;;;1.13;0.50;;;7.90;99.90;;;;;;5073251;28;20445;-78
2022/09/29 04:44:05;;;;;;;1.43;0.70;;;7.90;99.90;;;;;;5073096;28;20488;-78
2022/09/29 04:46:32;;;;;;;0.93;0.93;;;7.90;99.90;;;;;;5073215;28;20585;-78
2022/09/29 04:49:00;;;;;;;4.37;0.70;;;7.90;99.90;;;;;;5073175;28;20461;-78
2022/09/29 04:51:27;;;;;;;0.50;0.33;;;7.90;99.90;;;;;;5072781;28;20941;-78
2022/09/29 04:53:54;;;;;;;0.50;0.40;;;7.90;99.90;;;;;;5072769;28;21003;-79
2022/09/29 04:56:21;;;;;;;0.40;0.30;;;7.90;99.90;;;;;;5073073;28;20452;-78
2022/09/29 04:58:47;;;;;;;0.93;0.63;;;7.90;99.90;;;;;;5073048;28;20461;-78
2022/09/29 05:01:14;;;;;;;0.37;0.30;;;7.80;99.90;;;;;;5073150;28;20436;-78
2022/09/29 05:03:41;;;;;;;0.30;0.30;;;7.90;99.90;;;;;;5072909;28;20485;-79
2022/09/29 05:06:10;;;;;;;0.93;0.60;;;7.90;99.90;;;;;;5073029;28;20441;-79
2022/09/29 05:08:37;;;;;;;0.40;0.40;;;7.80;99.90;;;;;;5072983;28;20453;-79
2022/09/29 05:11:05;;;;;;;0.60;0.40;;;7.80;99.90;;;;;;5074247;28;20452;-79
2022/09/29 05:13:32;;;;;;;0.80;0.60;;;7.80;99.90;;;;;;5076456;28;20461;-79
2022/09/29 05:15:59;;;;;;;2.70;1.07;;;7.80;99.90;;;;;;5076453;28;20456;-79
2022/09/29 05:18:27;;;;;;;1.43;0.80;;;7.80;99.90;;;;;;5076714;28;20453;-79
2022/09/29 05:20:53;;;;;;;0.40;0.40;;;7.90;99.90;;;;;;5076646;28;20456;-78
2022/09/29 05:23:21;;;;;;;0.70;0.70;;;7.90;99.90;;;;;;5076453;28;20487;-78
2022/09/29 05:25:49;;;;;;;0.93;0.90;;;7.90;99.90;;;;;;5076529;28;20440;-78
2022/09/29 05:28:16;;;;;;;0.90;0.90;;;7.90;99.90;;;;;;5076225;28;20518;-78
2022/09/29 05:30:43;;;;;;;0.80;0.70;;;7.90;99.90;;;;;;5076472;28;20441;-78
2022/09/29 05:33:10;;;;;;;0.50;0.50;;;7.90;99.90;;;;;;5076336;28;20812;-79
2022/09/29 05:35:37;;;;;;;1.43;0.60;;;7.90;99.90;;;;;;5076062;28;20456;-78
2022/09/29 05:38:03;;;;;;;5.20;1.03;;;7.90;99.90;;;;;;5076019;28;20441;-78
2022/09/29 05:40:31;;;;;;;1.77;0.70;;;7.80;99.90;;;;;;5076309;28;20442;-79
2022/09/29 05:42:59;;;;;;;3.40;0.90;;;7.80;99.90;;;;;;5075761;28;20449;-79
2022/09/29 05:45:26;;;;;;;1.10;0.60;;;7.80;99.90;;;;;;5076213;28;20434;-78
2022/09/29 05:47:53;;;;;;;2.60;0.80;;;7.80;99.90;;;;;;5076145;28;20445;-78
2022/09/29 05:50:20;;;;;;;0.43;0.43;;;7.80;99.90;;;;;;5076127;28;20453;-78
2022/09/29 05:52:48;;;;;;;2.30;1.13;;;7.80;99.90;;;;;;5076071;28;20443;-78
2022/09/29 05:55:15;;;;;;;0.40;0.40;;;7.80;99.90;;;;;;5075994;28;20465;-78
2022/09/29 05:57:47;;;;;;;0.40;0.30;;;7.90;99.90;;;;;;5075684;28;20963;-77
2022/09/29 06:00:13;;;;;;;0.40;0.40;;;8.00;99.90;;;;;;5075673;28;20426;-77
2022/09/29 06:02:40;;;;;;;0.40;0.40;;;8.00;99.90;;;;;;5075531;28;20846;-77
2022/09/29 06:05:07;;;;;;;0.50;0.50;;;8.00;99.90;;;;;;5075703;28;20489;-77
2022/09/29 06:07:34;;;;;;;0.40;0.40;;;8.10;99.90;;;;;;5075515;28;20960;-77
2022/09/29 06:10:01;;;;;;;0.83;0.50;;;8.10;99.90;;;;;;5075478;28;20937;-77
2022/09/29 06:12:28;;;;;;;2.27;0.70;;;8.10;99.90;;;;;;5075706;28;20442;-78
2022/09/29 06:14:56;;;;;;;1.40;0.50;;;8.10;99.90;;;;;;5075527;28;20466;-77
2022/09/29 06:17:23;;;;;;;0.70;0.47;;;8.20;99.90;;;;;;5075647;28;20449;-77
2022/09/29 06:19:49;;;;;;;0.70;0.43;;;8.20;99.90;;;;;;5075299;28;20450;-77
2022/09/29 06:22:16;;;;;;;0.60;0.60;;;8.30;99.90;;;;;;5075144;28;20459;-78
2022/09/29 06:24:43;;;;;;;0.90;0.40;;;8.40;99.90;;;;;;5075379;28;20485;-78
2022/09/29 06:27:10;;;;;;;1.53;0.50;;;8.40;99.90;;;;;;5075456;28;20445;-77
2022/09/29 06:29:37;;;;;;;0.50;0.30;;;8.50;99.90;;;;;;5074897;28;20485;-78
2022/09/29 06:32:05;;;;;;;0.70;0.70;;;8.50;99.90;;;;;;5075036;28;20942;-78
2022/09/29 06:34:32;;;;;;;1.37;1.20;;;8.60;99.90;;;;;;5074941;28;20991;-77
2022/09/29 06:39:43;;;;;;;0.73;0.60;;;8.60;99.90;;;;;;5075007;28;20797;-77
2022/09/29 06:42:11;;;;;;;2.93;0.70;;;8.70;99.90;;;;;;5075179;28;20521;-78
2022/09/29 06:44:38;;;;;;;2.00;0.80;;;8.70;99.90;;;;;;5074729;28;20478;-78
2022/09/29 06:47:06;;;;;;;0.70;0.70;;;8.60;99.90;;;;;;5074996;28;20452;-78
2022/09/29 06:49:32;;;;;;;0.57;0.40;;;8.70;99.90;;;;;;5075065;28;20433;-78
2022/09/29 06:51:59;;;;;;;0.67;0.50;;;8.70;99.90;;;;;;5074578;28;20437;-78
2022/09/29 06:54:26;;;;;;;0.57;0.50;;;8.70;99.90;;;;;;5074756;28;20469;-78
2022/09/29 06:56:54;;;;;;;0.70;0.40;;;8.70;99.90;;;;;;5074521;28;20449;-78
2022/09/29 06:59:20;;;;;;;0.60;0.60;;;8.80;99.90;;;;;;5074812;28;20445;-78
2022/09/29 07:01:48;;;;;;;0.70;0.60;;;8.80;99.90;;;;;;5074731;28;20456;-78
2022/09/29 07:04:17;;;;;;;1.17;0.70;;;8.80;99.90;;;;;;5074583;28;20889;-78
2022/09/29 07:06:44;;;;;;;0.60;0.50;;;8.90;99.90;;;;;;5074657;28;20430;-78
2022/09/29 07:09:14;;;;;;;0.37;0.33;;;8.90;99.90;;;;;;5074565;28;20564;-78
2022/09/29 07:11:44;;;;;;;0.80;0.47;;;9.00;99.90;;;;;;5074248;28;20430;-78
2022/09/29 07:14:10;;;;;;;1.27;0.60;;;9.00;99.90;;;;;;5074434;28;20465;-78
2022/09/29 07:16:37;;;;;;;0.60;0.40;;;9.10;99.90;;;;;;5074129;28;20940;-78
2022/09/29 07:19:04;;;;;;;0.63;0.63;;;9.00;99.90;;;;;;5074522;28;20523;-78
2022/09/29 07:21:32;;;;;;;0.80;0.50;;;9.00;99.90;;;;;;5074332;28;20441;-79
2022/09/29 07:23:59;;;;;;;0.40;0.40;;;9.00;99.90;;;;;;5074157;28;20496;-78
2022/09/29 07:26:26;;;;;;;1.37;0.50;;;9.00;99.90;;;;;;5074270;28;20449;-79
2022/09/29 07:28:53;;;;;;;0.80;0.50;;;9.00;99.90;;;;;;5073857;28;20486;-79
2022/09/29 07:31:21;;;;;;;0.73;0.67;;;9.00;99.90;;;;;;5074460;28;20461;-78
2022/09/29 07:33:50;;;;;;;1.07;0.80;;;9.10;99.90;;;;;;5073372;28;20468;-78
2022/09/29 07:36:19;;;;;;;1.57;0.50;;;9.10;99.90;;;;;;5074123;28;20491;-78
2022/09/29 07:38:48;;;;;;;0.77;0.77;;;9.10;99.90;;;;;;5074563;28;20445;-78
2022/09/29 07:41:16;;;;;;;0.93;0.60;;;9.10;99.90;;;;;;5073961;28;20445;-78
2022/09/29 07:43:43;;;;;;;0.40;0.40;;;9.20;99.90;;;;;;5073799;28;20495;-78
2022/09/29 07:46:11;;;;;;;0.50;0.50;;;9.30;99.90;;;;;;5073903;28;20443;-79
2022/09/29 07:48:38;;;;;;;1.48;0.50;;;9.30;99.90;;;;;;5073868;28;20445;-79
2022/09/29 07:51:07;;;;;;;0.60;0.60;;;9.50;99.90;;;;;;5073833;28;20282;-79
2022/09/29 07:53:35;;;;;;;0.70;0.53;;;9.50;99.90;;;;;;5073715;28;20465;-79
2022/09/29 07:56:07;;;;;;;0.73;0.50;;;9.60;99.90;;;;;;5073421;28;20956;-79
2022/09/29 07:58:35;;;;;;;0.50;0.50;;;9.70;99.90;;;;;;5074119;28;20429;-79
2022/09/29 08:01:05;;;;;;;0.40;0.37;;;9.80;99.90;;;;;;5073383;28;20843;-79
2022/09/29 08:03:32;;;;;;;0.50;0.50;;;9.80;99.90;;;;;;5073159;28;20509;-79
2022/09/29 08:05:58;;;;;;;0.50;0.50;;;9.90;99.90;;;;;;5073623;28;20453;-78
2022/09/29 08:08:26;;;;;;;0.60;0.40;;;9.90;99.90;;;;;;5073631;28;20437;-78
2022/09/29 08:10:52;;;;;;;0.50;0.30;;;9.90;99.90;;;;;;5073335;28;20436;-78
2022/09/29 08:13:21;;;;;;;1.53;0.77;;;9.90;99.90;;;;;;5073449;28;20475;-78
2022/09/29 08:15:48;;;;;;;3.17;0.80;;;10.00;99.90;;;;;;5073549;28;20438;-78
2022/09/29 08:18:14;;;;;;;0.60;0.60;;;10.00;99.90;;;;;;5073189;28;20964;-78
2022/09/29 08:20:41;;;;;;;0.50;0.50;;;10.10;99.90;;;;;;5073464;28;20453;-78
2022/09/29 08:23:08;;;;;;;1.23;0.70;;;10.20;99.90;;;;;;5074189;28;20445;-78
2022/09/29 08:25:35;;;;;;;0.57;0.57;;;10.30;99.90;;;;;;5073355;28;20488;-78
2022/09/29 08:28:01;;;;;;;0.73;0.73;;;10.40;99.90;;;;;;5073114;28;20503;-77
2022/09/29 08:30:30;;;;;;;0.60;0.50;;;10.50;99.90;;;;;;5073088;28;20445;-78
2022/09/29 08:32:57;;;;;;;0.50;0.50;;;10.50;99.90;;;;;;5073339;28;20448;-78
2022/09/29 08:35:24;;;;;;;0.77;0.30;;;10.60;99.90;;;;;;5073294;28;20447;-79
2022/09/29 08:37:51;;;;;;;0.40;0.30;;;10.70;99.90;;;;;;5073296;28;20540;-78
2022/09/29 08:40:18;;;;;;;0.47;0.47;;;10.70;99.90;;;;;;5073268;28;20500;-78
2022/09/29 08:42:56;;;;;;;0.63;0.40;;;10.80;99.90;;;;;;5073306;28;20429;-78
2022/09/29 08:45:29;;;;;;;0.70;0.40;;;10.80;99.90;;;;;;5075098;28;20475;-78
2022/09/29 08:48:04;;;;;;;0.40;0.33;;;10.80;99.90;;;;;;5077410;28;20434;-79
2022/09/29 08:50:35;;;;;;;0.67;0.53;;;10.90;99.90;;;;;;5077363;28;20796;-79
2022/09/29 08:53:06;;;;;;;0.50;0.50;;;10.90;99.90;;;;;;5076895;28;20845;-79
2022/09/29 08:55:42;;;;;;;1.27;0.50;;;11.00;99.90;;;;;;5077195;28;20426;-79
2022/09/29 08:58:12;;;;;;;0.50;0.50;;;11.10;99.90;;;;;;5077287;28;20576;-79
2022/09/29 09:00:46;;;;;;;0.50;0.37;;;11.10;99.90;;;;;;5077141;28;20430;-79
2022/09/29 09:03:44;;;;;;;1.07;0.50;;;11.10;99.90;;;;;;5076975;28;20430;-78
2022/09/29 09:06:17;;;;;;;0.80;0.50;;;11.20;99.90;;;;;;5040896;28;20972;-77
2022/09/29 09:08:59;;;;;;;0.60;0.40;;;11.30;99.90;;;;;;5077011;28;20422;-77
2022/09/29 09:11:37;;;;;;;0.40;0.30;;;11.40;99.90;;;;;;5076905;28;20422;-77
2022/09/29 09:14:17;;;;;;;0.43;0.43;;;11.40;99.90;;;;;;5076521;28;20995;-77
2022/09/29 09:16:54;;;;;;;0.80;0.50;;;11.40;99.90;;;;;;5076806;28;20490;-77
2022/09/29 09:19:59;;;;;;;0.40;0.40;;;11.50;99.90;;;;;;5076747;28;20437;-77
2022/09/29 09:22:38;;;;;;;0.40;0.40;;;11.50;99.90;;;;;;5066199;28;20453;-77
2022/09/29 09:25:14;;;;;;;1.63;0.50;;;11.60;99.90;;;;;;5076469;28;20485;-77
2022/09/29 09:27:45;;;;;;;0.30;0.30;;;11.60;99.90;;;;;;5076307;28;20492;-77
2022/09/29 09:30:15;;;;;;;1.17;0.40;;;11.60;99.90;;;;;;5076529;28;20425;-77
2022/09/29 09:32:48;;;;;;;0.40;0.30;;;11.70;99.90;;;;;;5076423;28;20539;-77
2022/09/29 09:35:30;;;;;;;0.93;0.40;;;11.70;99.90;;;;;;5076404;28;20481;-78
2022/09/29 09:38:02;;;;;;;0.40;0.40;;;11.70;99.90;;;;;;5076405;28;20425;-78
2022/09/29 09:40:38;;;;;;;0.30;0.30;;;11.80;99.90;;;;;;5076224;28;20436;-77
2022/09/29 09:43:12;;;;;;;0.40;0.40;;;11.80;99.90;;;;;;5076211;28;20797;-77
2022/09/29 09:45:47;;;;;;;0.50;0.40;;;11.90;99.90;;;;;;5076199;28;20471;-77
2022/09/29 09:48:19;;;;;;;0.90;0.33;;;12.00;99.90;;;;;;5075884;28;20971;-77
2022/09/29 09:50:49;;;;;;;0.40;0.30;;;12.10;99.90;;;;;;5076143;28;20434;-78
2022/09/29 09:53:27;;;;;;;0.30;0.30;;;12.20;99.90;;;;;;5076053;28;20457;-77
2022/09/29 09:56:04;;;;;;;1.57;0.60;;;12.30;99.90;;;;;;5075859;28;20491;-77
2022/09/29 09:58:46;;;;;;;0.30;0.30;;;12.30;99.90;;;;;;5075487;28;20944;-77
2022/09/29 10:01:13;;;;;;;0.50;0.40;;;12.30;99.90;;;;;;5076026;28;20430;-77
2022/09/29 10:03:39;;;;;;;0.40;0.30;;;12.40;99.90;;;;;;5075561;28;20466;-78
2022/09/29 10:06:08;;;;;;;0.40;0.40;;;12.30;99.90;;;;;;5075593;28;20478;-77
2022/09/29 10:08:41;;;;;;;0.47;0.37;;;12.30;99.90;;;;;;5075799;28;20450;-77
2022/09/29 10:11:21;;;;;;;0.30;0.30;;;12.10;99.90;;;;;;5075810;28;20441;-78
2022/09/29 10:13:54;;;;;;;0.30;0.30;;;12.00;99.90;;;;;;5075434;28;20539;-78
2022/09/29 10:16:27;;;;;;;0.40;0.40;;;12.00;99.90;;;;;;5075751;28;20456;-77
2022/09/29 10:18:55;;;;;;;0.50;0.50;;;12.20;99.90;;;;;;5075366;28;20921;-78
2022/09/29 10:21:34;;;;;;;0.40;0.30;;;12.20;99.90;;;;;;5075627;28;20524;-77
2022/09/29 10:24:07;;;;;;;0.30;0.30;;;12.30;99.90;;;;;;5075250;28;20465;-77
2022/09/29 10:26:37;;;;;;;0.40;0.40;;;12.50;99.90;;;;;;5075450;28;20477;-77
2022/09/29 10:29:18;;;;;;;0.50;0.50;;;12.70;99.90;;;;;;5075098;28;20477;-78
2022/09/29 10:31:59;;;;;;;0.40;0.40;;;12.90;99.90;;;;;;5075455;28;20430;-77
2022/09/29 10:34:26;;;;;;;0.40;0.40;;;12.90;99.90;;;;;;5075313;28;20469;-78
2022/09/29 10:36:56;;;;;;;0.50;0.40;;;12.90;99.90;;;;;;5075296;28;20472;-77
2022/09/29 10:39:41;;;;;;;1.07;0.47;;;13.00;99.90;;;;;;5074981;28;20963;-78
2022/09/29 10:42:22;;;;;;;1.30;0.47;;;13.30;99.90;;;;;;5075228;28;20524;-78
2022/09/29 10:44:54;;;;;;;0.40;0.40;;;13.40;99.90;;;;;;5074738;28;20996;-78
2022/09/29 10:47:22;;;;;;;0.40;0.40;;;13.50;99.90;;;;;;5074737;28;20442;-78
2022/09/29 10:50:08;;;;;;;0.40;0.40;;;13.40;99.90;;;;;;5075050;28;20464;-78
2022/09/29 10:52:35;;;;;;;0.57;0.50;;;13.20;99.90;;;;;;5075078;28;20428;-77
2022/09/29 10:55:05;;;;;;;0.80;0.50;;;13.10;99.90;;;;;;5074859;28;20462;-78
2022/09/29 10:57:34;;;;;;;0.73;0.50;;;13.10;99.90;;;;;;5074907;28;20450;-78
2022/09/29 11:00:02;;;;;;;0.50;0.40;;;13.00;99.90;;;;;;5074826;28;20568;-78
2022/09/29 11:02:32;;;;;;;0.40;0.30;;;13.00;99.90;;;;;;5074760;28;20442;-77
2022/09/29 11:05:02;;;;;;;1.70;0.50;;;13.10;99.90;;;;;;5074755;28;20506;-77
2022/09/29 11:07:30;;;;;;;0.57;0.53;;;13.10;99.90;;;;;;5074812;28;20442;-78
2022/09/29 11:09:57;;;;;;;0.40;0.33;;;13.20;99.90;;;;;;5073490;28;20449;-77
2022/09/29 11:12:37;;;;;;;1.60;0.80;;;13.10;99.90;;;;;;5074581;28;20441;-78
2022/09/29 11:15:24;;;;;;;0.50;0.50;;;13.20;99.90;;;;;;5074445;28;20462;-78
2022/09/29 11:17:51;;;;;;;0.40;0.30;;;13.20;99.90;;;;;;5074505;28;20804;-77
2022/09/29 11:20:19;;;;;;;0.40;0.30;;;13.10;99.90;;;;;;5074455;28;20456;-77
2022/09/29 11:23:01;;;;;;;0.33;0.30;;;13.20;99.90;;;;;;5074062;28;20955;-77
2022/09/29 11:25:45;;;;;;;0.50;0.40;;;13.40;99.90;;;;;;5074276;28;20472;-77
2022/09/29 11:28:25;;;;;;;0.40;0.40;;;13.50;99.90;;;;;;5074056;28;20485;-77
2022/09/29 11:31:08;;;;;;;0.40;0.33;;;13.50;99.90;;;;;;5074276;28;20441;-77
2022/09/29 11:33:42;;;;;;;0.40;0.40;;;13.50;99.90;;;;;;5073814;28;20915;-77
2022/09/29 11:36:18;;;;;;;0.47;0.40;;;13.50;99.90;;;;;;5074200;28;20433;-77
2022/09/29 11:38:59;;;;;;;0.43;0.43;;;13.50;99.90;;;;;;5074120;28;20440;-77
2022/09/29 11:41:41;;;;;;;0.47;0.40;;;13.50;99.90;;;;;;5074045;28;20524;-77
2022/09/29 11:44:28;;;;;;;0.40;0.40;;;13.40;99.90;;;;;;5073960;28;20465;-76
2022/09/29 11:47:04;;;;;;;0.30;0.30;;;13.40;99.90;;;;;;5074717;28;20465;-76
2022/09/29 11:50:01;;;;;;;0.40;0.33;;;13.30;99.90;;;;;;5073910;28;20436;-76
2022/09/29 11:52:50;;;;;;;0.40;0.40;;;13.20;99.90;;;;;;5073841;28;20452;-77
2022/09/29 11:55:31;;;;;;;0.70;0.40;;;13.20;99.90;;;;;;5073759;28;20477;-77
2022/09/29 11:58:14;;;;;;;0.70;0.70;;;13.10;99.90;;;;;;5073824;28;20440;-77
2022/09/29 12:00:59;;;;;;;0.40;0.30;;;13.20;99.90;;;;;;5073801;28;20438;-77
2022/09/29 12:03:36;;;;;;;0.40;0.30;;;13.30;99.90;;;;;;5073657;28;20465;-77
2022/09/29 12:06:28;;;;;;;0.30;0.30;;;13.30;99.90;;;;;;5073642;28;20518;-77
2022/09/29 12:09:05;;;;;;;0.50;0.40;;;13.30;99.90;;;;;;5073623;28;20450;-77
2022/09/29 12:11:41;;;;;;;0.40;0.40;;;13.40;99.90;;;;;;5073355;28;20483;-77
2022/09/29 12:14:15;;;;;;;0.40;0.40;;;13.50;99.90;;;;;;5073540;28;20832;-77
2022/09/29 12:16:52;;;;;;;0.50;0.47;;;13.40;99.90;;;;;;5073276;28;20849;-77
2022/09/29 12:19:23;;;;;;;0.70;0.47;;;13.50;99.90;;;;;;5073205;28;20429;-77
2022/09/29 12:21:54;;;;;;;0.40;0.30;;;13.50;99.90;;;;;;5073488;28;20509;-77
2022/09/29 12:24:33;;;;;;;0.40;0.40;;;13.50;99.90;;;;;;5073433;28;20559;-77
2022/09/29 12:27:02;;;;;;;1.47;0.40;;;13.50;99.90;;;;;;5073368;28;20477;-77
2022/09/29 12:29:34;;;;;;;0.63;0.43;;;13.60;99.90;;;;;;5072906;28;20492;-77
2022/09/29 12:32:11;;;;;;;0.40;0.37;;;13.60;99.90;;;;;;5073380;28;20517;-77
2022/09/29 12:34:45;;;;;;;0.50;0.40;;;13.70;99.90;;;;;;5072933;28;20471;-77
2022/09/29 12:37:19;;;;;;;0.50;0.40;;;13.60;99.90;;;;;;5073414;28;20195;-77
2022/09/29 12:39:55;;;;;;;0.40;0.30;;;13.60;99.90;;;;;;5072978;28;20812;-77
2022/09/29 12:42:46;;;;;;;0.40;0.40;;;13.40;99.90;;;;;;5073293;28;20429;-76
2022/09/29 12:45:20;;;;;;;0.77;0.40;;;13.40;99.90;;;;;;5072845;28;20486;-76
2022/09/29 12:48:00;;;;;;;0.40;0.40;;;13.50;99.90;;;;;;5073240;28;20434;-76
2022/09/29 12:50:30;;;;;;;1.50;0.40;;;13.50;99.90;;;;;;5073197;28;20438;-76
2022/09/29 12:53:03;;;;;;;0.83;0.30;;;13.50;99.90;;;;;;5073167;28;20434;-76
2022/09/29 12:55:38;;;;;;;0.40;0.30;;;13.50;99.90;;;;;;5073166;28;20433;-77
2022/09/29 12:58:14;;;;;;;0.40;0.40;;;13.50;99.90;;;;;;5073147;28;20440;-78
2022/09/29 13:00:44;;;;;;;0.50;0.43;;;13.50;99.90;;;;;;5073141;28;20434;-78
2022/09/29 13:03:48;;;;;;;0.57;0.33;;;13.50;99.90;;;;;;5072976;28;20445;-78
2022/09/29 13:06:50;;;;;;;0.40;0.40;;;13.50;99.90;;;;;;5050386;28;20476;-78
2022/09/29 13:09:35;;;;;;;0.77;0.40;;;13.50;99.90;;;;;;5073085;28;20197;-78
2022/09/29 13:12:23;;;;;;;0.83;0.40;;;13.50;99.90;;;;;;5072733;28;20434;-78
2022/09/29 13:15:23;;;;;;;0.50;0.40;;;13.60;99.90;;;;;;5072918;28;20470;-78
2022/09/29 13:18:02;;;;;;;0.30;0.30;;;13.60;99.90;;;;;;5072966;28;20438;-76